createdAt,value
2018-09-15T00:01:57.333Z,1.77
2018-09-15T00:04:28.011Z,1.87
2018-09-15T00:06:58.510Z,1.87
2018-09-15T00:09:35.371Z,2.37
2018-09-15T00:12:07.700Z,2.10
2018-09-15T00:14:38.724Z,2.17
2018-09-15T00:17:09.508Z,1.97
2018-09-15T00:19:40.366Z,1.93
2018-09-15T00:22:11.066Z,2.30
2018-09-15T00:24:44.456Z,2.00
2018-09-15T00:27:14.985Z,1.67
2018-09-15T00:29:44.863Z,2.43
2018-09-15T00:32:18.625Z,2.30
2018-09-15T00:34:55.885Z,2.10
2018-09-15T00:37:26.714Z,2.33
2018-09-15T00:39:57.658Z,2.60
2018-09-15T00:42:28.006Z,2.67
2018-09-15T00:44:57.744Z,2.33
2018-09-15T00:47:27.476Z,2.77
2018-09-15T00:49:58.491Z,3.03
2018-09-15T00:52:29.920Z,2.70
2018-09-15T00:55:00.845Z,2.70
2018-09-15T00:57:31.428Z,2.40
2018-09-15T01:00:01.177Z,2.83
2018-09-15T01:02:33.795Z,2.60
2018-09-15T01:05:05.220Z,2.80
2018-09-15T01:07:37.728Z,2.70
2018-09-15T01:10:08.593Z,2.73
2018-09-15T01:12:39.188Z,3.33
2018-09-15T01:15:10.476Z,3.00
2018-09-15T01:17:40.915Z,2.40
2018-09-15T01:20:12.572Z,2.80
2018-09-15T01:22:50.569Z,3.30
2018-09-15T01:25:20.943Z,2.83
2018-09-15T01:27:50.847Z,3.20
2018-09-15T01:30:21.747Z,2.80
2018-09-15T01:32:51.879Z,2.73
2018-09-15T01:35:22.125Z,2.47
2018-09-15T01:37:53.211Z,3.30
2018-09-15T01:40:28.408Z,2.53
2018-09-15T01:42:57.994Z,2.90
2018-09-15T01:45:27.472Z,2.50
2018-09-15T01:47:57.948Z,2.73
2018-09-15T01:50:28.884Z,3.10
2018-09-15T01:52:59.444Z,3.00
2018-09-15T01:55:29.899Z,3.10
2018-09-15T01:58:02.563Z,2.90
2018-09-15T02:00:32.011Z,3.17
2018-09-15T02:03:05.377Z,3.00
2018-09-15T02:05:35.729Z,3.33
2018-09-15T02:11:11.458Z,3.50
2018-09-15T02:13:43.620Z,3.47
2018-09-15T02:16:16.292Z,3.60
2018-09-15T02:18:55.036Z,3.30
2018-09-15T02:21:25.294Z,3.63
2018-09-15T02:23:55.970Z,3.37
2018-09-15T02:26:25.899Z,4.40
2018-09-15T02:28:55.566Z,3.77
2018-09-15T02:31:27.532Z,3.77
2018-09-15T02:33:59.641Z,4.20
2018-09-15T02:36:32.732Z,3.80
2018-09-15T02:39:02.379Z,3.60
2018-09-15T02:41:35.152Z,3.63
2018-09-15T02:44:05.586Z,3.53
2018-09-15T02:46:36.434Z,2.80
2018-09-15T02:49:10.469Z,2.90
2018-09-15T02:51:43.147Z,3.43
2018-09-15T02:54:15.419Z,3.70
2018-09-15T02:56:46.096Z,3.10
2018-09-15T02:59:16.257Z,2.83
2018-09-15T03:15:48.618Z,3.47
2018-09-15T03:18:18.050Z,2.77
2018-09-15T03:20:47.524Z,3.73
2018-09-15T03:23:17.978Z,3.90
2018-09-15T03:25:52.321Z,3.33
2018-09-15T03:28:22.871Z,3.30
2018-09-15T03:30:52.763Z,3.10
2018-09-15T03:33:23.195Z,2.90
2018-09-15T03:35:54.749Z,3.20
2018-09-15T03:38:24.205Z,3.53
2018-09-15T03:41:09.514Z,3.07
2018-09-15T03:43:41.442Z,2.77
2018-09-15T03:46:11.262Z,3.17
2018-09-15T03:55:19.356Z,2.73
2018-09-15T03:57:49.412Z,1.93
2018-09-15T04:00:19.934Z,2.23
2018-09-15T04:02:51.340Z,2.03
2018-09-15T04:05:26.174Z,2.20
2018-09-15T04:07:56.680Z,2.23
2018-09-15T04:10:27.620Z,2.47
2018-09-15T04:12:57.294Z,2.30
2018-09-15T04:15:27.468Z,2.47
2018-09-15T04:17:57.634Z,2.33
2018-09-15T04:20:27.724Z,1.90
2018-09-15T04:23:01.301Z,2.43
2018-09-15T04:25:30.943Z,2.87
2018-09-15T04:28:01.041Z,2.50
2018-09-15T04:30:31.817Z,2.57
2018-09-15T04:33:03.459Z,2.80
2018-09-15T04:35:33.377Z,3.30
2018-09-15T04:38:06.145Z,2.37
2018-09-15T04:40:35.733Z,3.20
2018-09-15T04:43:06.535Z,3.47
2018-09-15T04:45:35.867Z,4.43
2018-09-15T04:48:05.608Z,4.50
2018-09-15T04:50:36.175Z,4.97
2018-09-15T04:53:06.248Z,5.37
2018-09-15T04:55:34.953Z,5.33
2018-09-15T04:58:06.504Z,4.80
2018-09-15T05:00:35.329Z,4.93
2018-09-15T05:03:04.014Z,5.00
2018-09-15T05:05:32.649Z,4.80
2018-09-15T05:08:01.260Z,5.20
2018-09-15T05:10:30.048Z,4.53
2018-09-15T05:12:58.813Z,4.47
2018-09-15T05:15:27.406Z,5.30
2018-09-15T05:17:55.994Z,5.70
2018-09-15T05:20:24.586Z,6.50
2018-09-15T05:22:53.323Z,6.93
2018-09-15T05:25:21.919Z,6.50
2018-09-15T05:27:50.775Z,6.40
2018-09-15T05:30:26.892Z,6.03
2018-09-15T05:33:00.255Z,5.60
2018-09-15T05:35:37.593Z,4.60
2018-09-15T05:38:06.577Z,5.47
2018-09-15T05:40:36.433Z,4.20
2018-09-15T05:43:05.388Z,4.20
2018-09-15T05:45:35.067Z,3.30
2018-09-15T05:48:03.956Z,4.33
2018-09-15T05:50:32.852Z,3.53
2018-09-15T05:53:02.510Z,3.27
2018-09-15T05:55:32.122Z,3.40
2018-09-15T05:58:00.968Z,3.53
2018-09-15T06:00:30.032Z,3.73
2018-09-15T06:02:58.898Z,3.53
2018-09-15T06:05:28.321Z,3.93
2018-09-15T06:07:58.333Z,3.73
2018-09-15T06:10:27.004Z,3.33
2018-09-15T06:12:59.056Z,2.77
2018-09-15T06:15:27.939Z,2.57
2018-09-15T06:18:00.924Z,2.80
2018-09-15T06:20:29.908Z,2.80
2018-09-15T06:22:58.637Z,3.00
2018-09-15T06:25:28.907Z,2.30
2018-09-15T06:27:58.527Z,2.67
2018-09-15T06:30:27.357Z,2.50
2018-09-15T06:32:58.349Z,2.57
2018-09-15T06:35:27.899Z,2.73
2018-09-15T06:37:56.579Z,2.37
2018-09-15T06:40:25.488Z,2.63
2018-09-15T06:42:54.201Z,2.20
2018-09-15T06:45:22.909Z,2.27
2018-09-15T06:47:56.209Z,2.80
2018-09-15T06:50:25.146Z,2.47
2018-09-15T06:52:53.761Z,2.60
2018-09-15T06:55:22.528Z,2.70
2018-09-15T06:57:54.858Z,2.80
2018-09-15T07:00:23.598Z,2.80
2018-09-15T07:02:59.779Z,2.30
2018-09-15T07:05:29.211Z,3.00
2018-09-15T07:07:58.474Z,2.03
2018-09-15T07:10:27.230Z,2.63
2018-09-15T07:12:56.092Z,2.60
2018-09-15T07:15:25.144Z,2.73
2018-09-15T07:17:53.983Z,3.20
2018-09-15T07:20:22.852Z,2.60
2018-09-15T07:22:51.821Z,3.20
2018-09-15T07:25:21.228Z,2.30
2018-09-15T07:27:50.915Z,2.17
2018-09-15T07:30:20.409Z,4.23
2018-09-15T07:32:49.852Z,3.87
2018-09-15T07:35:18.769Z,3.07
2018-09-15T07:37:47.694Z,4.87
2018-09-15T07:40:21.264Z,2.30
2018-09-15T07:42:54.988Z,2.40
2018-09-15T07:45:24.313Z,2.80
2018-09-15T07:47:53.917Z,2.70
2018-09-15T07:50:23.070Z,2.70
2018-09-15T07:52:51.931Z,3.50
2018-09-15T07:55:20.651Z,2.00
2018-09-15T07:57:49.376Z,1.93
2018-09-15T08:00:18.086Z,1.97
2018-09-15T08:02:46.726Z,1.90
2018-09-15T08:05:15.416Z,2.13
2018-09-15T08:07:44.200Z,3.57
2018-09-15T08:10:12.974Z,2.70
2018-09-15T08:12:42.545Z,4.27
2018-09-15T08:15:11.966Z,3.90
2018-09-15T08:17:41.335Z,2.67
2018-09-15T08:20:10.145Z,2.77
2018-09-15T08:22:38.863Z,2.83
2018-09-15T08:25:10.904Z,2.27
2018-09-15T08:27:39.768Z,2.83
2018-09-15T08:30:09.443Z,2.10
2018-09-15T08:32:38.348Z,1.87
2018-09-15T08:35:09.525Z,2.20
2018-09-15T08:37:38.525Z,2.20
2018-09-15T08:40:08.385Z,2.00
2018-09-15T08:42:37.839Z,2.70
2018-09-15T08:45:07.136Z,7.33
2018-09-15T08:47:36.875Z,4.83
2018-09-15T08:50:06.168Z,7.50
2018-09-15T08:52:35.032Z,8.33
2018-09-15T08:55:03.944Z,4.53
2018-09-15T08:57:33.668Z,5.60
2018-09-15T09:00:02.389Z,3.30
2018-09-15T09:02:31.237Z,2.97
2018-09-15T09:05:00.243Z,2.47
2018-09-15T09:07:32.672Z,1.70
2018-09-15T09:10:12.718Z,2.00
2018-09-15T09:12:41.633Z,1.40
2018-09-15T09:15:10.675Z,1.90
2018-09-15T09:17:39.514Z,1.90
2018-09-15T09:20:08.332Z,2.10
2018-09-15T09:22:37.613Z,2.40
2018-09-15T09:25:14.187Z,2.10
2018-09-15T09:27:48.064Z,2.23
2018-09-15T09:30:21.500Z,2.13
2018-09-15T09:32:51.880Z,2.20
2018-09-15T09:35:25.348Z,2.10
2018-09-15T09:37:56.080Z,2.00
2018-09-15T09:40:25.107Z,1.70
2018-09-15T09:42:55.372Z,1.60
2018-09-15T09:45:24.497Z,2.43
2018-09-15T09:47:54.912Z,2.37
2018-09-15T09:50:25.614Z,2.00
2018-09-15T09:52:55.152Z,2.20
2018-09-15T09:55:25.226Z,1.90
2018-09-15T09:57:55.267Z,1.90
2018-09-15T10:00:29.204Z,2.33
2018-09-15T10:02:58.294Z,2.23
2018-09-15T10:05:27.248Z,1.87
2018-09-15T10:07:56.202Z,3.87
2018-09-15T10:10:25.074Z,3.43
2018-09-15T10:12:54.782Z,2.87
2018-09-15T10:15:29.179Z,7.13
2018-09-15T10:18:06.898Z,3.97
2018-09-15T10:20:51.374Z,6.03
2018-09-15T10:23:36.841Z,6.07
2018-09-15T10:26:22.052Z,7.47
2018-09-15T10:29:00.249Z,2.27
2018-09-15T10:34:40.593Z,2.00
2018-09-15T11:23:25.281Z,1.87
2018-09-15T11:26:30.348Z,2.00
2018-09-15T11:50:26.943Z,1.87
2018-09-15T11:52:56.103Z,2.10
2018-09-15T11:55:24.874Z,2.83
2018-09-15T11:57:53.611Z,1.63
2018-09-15T12:00:25.197Z,2.00
2018-09-15T12:02:55.094Z,1.23
2018-09-15T12:05:33.338Z,1.90
2018-09-15T12:08:08.142Z,1.60
2018-09-15T12:10:37.140Z,1.10
2018-09-15T12:13:06.756Z,1.40
2018-09-15T12:15:35.511Z,1.87
2018-09-15T12:18:04.295Z,1.60
2018-09-15T12:20:33.791Z,1.53
2018-09-15T12:23:02.607Z,1.87
2018-09-15T12:25:31.473Z,1.67
2018-09-15T12:28:00.270Z,1.37
2018-09-15T12:30:28.879Z,5.27
2018-09-15T12:32:57.574Z,1.50
2018-09-15T12:35:26.398Z,1.77
2018-09-15T12:37:55.106Z,1.40
2018-09-15T12:40:23.835Z,1.60
2018-09-15T12:42:52.960Z,1.20
2018-09-15T12:45:21.756Z,1.20
2018-09-15T12:47:52.146Z,1.50
2018-09-15T12:50:21.065Z,1.80
2018-09-15T12:52:49.793Z,1.97
2018-09-15T12:55:18.823Z,1.57
2018-09-15T12:57:48.882Z,1.73
2018-09-15T13:00:18.453Z,1.80
2018-09-15T13:02:47.801Z,1.90
2018-09-15T13:05:16.502Z,1.47
2018-09-15T13:07:45.322Z,1.40
2018-09-15T13:10:14.176Z,1.90
2018-09-15T13:12:42.988Z,1.60
2018-09-15T13:19:57.654Z,1.87
2018-09-15T13:22:26.664Z,1.70
2018-09-15T13:24:55.561Z,1.83
2018-09-15T13:27:24.523Z,1.70
2018-09-15T13:29:54.043Z,1.97
2018-09-15T13:32:23.382Z,1.93
2018-09-15T13:34:52.449Z,2.03
2018-09-15T13:37:24.135Z,1.83
2018-09-15T13:39:53.923Z,1.60
2018-09-15T13:42:23.349Z,1.87
2018-09-15T13:44:52.122Z,1.70
2018-09-15T13:47:21.114Z,1.87
2018-09-15T13:49:49.978Z,1.70
2018-09-15T13:52:18.721Z,1.40
2018-09-15T13:54:47.585Z,1.60
2018-09-15T13:57:18.115Z,1.50
2018-09-15T13:59:48.955Z,1.80
2018-09-15T14:02:17.799Z,1.93
2018-09-15T14:04:46.815Z,1.60
2018-09-15T14:07:16.461Z,1.37
2018-09-15T14:09:45.211Z,1.60
2018-09-15T14:12:15.387Z,1.60
2018-09-15T14:14:45.505Z,1.27
2018-09-15T14:17:15.111Z,1.53
2018-09-15T14:19:44.094Z,1.40
2018-09-15T14:22:13.340Z,1.40
2018-09-15T14:27:27.724Z,1.57
2018-09-15T14:29:56.848Z,1.47
2018-09-15T14:32:28.594Z,1.83
2018-09-15T14:34:58.736Z,1.63
2018-09-15T14:37:27.656Z,1.37
2018-09-15T14:39:57.134Z,1.60
2018-09-15T14:42:30.451Z,1.50
2018-09-15T14:45:01.592Z,1.33
2018-09-15T14:47:30.671Z,1.40
2018-09-15T14:49:59.626Z,1.30
2018-09-15T14:52:28.710Z,1.37
2018-09-15T14:54:57.733Z,1.90
2018-09-15T14:57:26.719Z,1.53
2018-09-15T14:59:57.055Z,1.70
2018-09-15T15:02:34.821Z,1.43
2018-09-15T15:05:03.986Z,1.77
2018-09-15T15:07:49.991Z,1.43
2018-09-15T15:10:19.475Z,1.80
2018-09-15T15:12:49.367Z,1.60
2018-09-15T15:15:20.622Z,1.80
2018-09-15T15:17:49.622Z,1.90
2018-09-15T15:23:14.260Z,1.60
2018-09-15T15:25:43.193Z,1.53
2018-09-15T15:28:12.308Z,1.73
2018-09-15T15:30:41.189Z,1.77
2018-09-15T15:33:10.247Z,3.37
2018-09-15T15:35:46.140Z,3.43
2018-09-15T15:39:17.453Z,5.00
2018-09-15T15:41:50.723Z,2.00
2018-09-15T15:44:23.613Z,1.80
2018-09-15T15:46:56.466Z,1.80
2018-09-15T15:49:26.459Z,1.90
2018-09-15T15:52:01.727Z,1.40
2018-09-15T15:54:30.714Z,2.17
2018-09-15T15:57:10.548Z,1.27
2018-09-15T15:59:41.446Z,2.00
2018-09-15T16:05:23.967Z,1.40
2018-09-15T16:07:53.841Z,1.33
2018-09-15T16:10:26.117Z,1.67
2018-09-15T16:12:57.569Z,1.63
2018-09-15T16:15:28.986Z,2.00
2018-09-15T16:17:57.889Z,1.20
2018-09-15T16:20:45.064Z,1.70
2018-09-15T16:23:14.225Z,1.80
2018-09-15T16:25:43.580Z,2.27
2018-09-15T16:28:13.179Z,2.47
2018-09-15T16:30:41.940Z,2.07
2018-09-15T16:33:10.610Z,2.33
2018-09-15T16:35:39.380Z,1.90
2018-09-15T16:38:33.035Z,1.37
2018-09-15T16:41:35.261Z,1.90
2018-09-15T16:44:04.112Z,1.93
2018-09-15T16:46:32.880Z,1.87
2018-09-15T16:49:02.600Z,2.73
2018-09-15T16:51:31.450Z,3.00
2018-09-15T16:54:00.153Z,2.90
2018-09-15T16:56:28.917Z,3.87
2018-09-15T16:58:57.683Z,2.23
2018-09-15T17:01:26.439Z,2.30
2018-09-15T17:03:55.447Z,1.73
2018-09-15T17:06:24.308Z,2.60
2018-09-15T17:08:54.320Z,1.67
2018-09-15T17:11:23.137Z,1.90
2018-09-15T17:13:52.639Z,1.83
2018-09-15T17:16:21.372Z,2.03
2018-09-15T17:18:50.096Z,2.30
2018-09-15T17:21:18.703Z,2.10
2018-09-15T17:23:47.442Z,1.93
2018-09-15T17:26:16.256Z,1.77
2018-09-15T17:28:44.937Z,1.70
2018-09-15T17:31:13.762Z,1.93
2018-09-15T17:33:42.486Z,1.70
2018-09-15T17:36:24.329Z,2.10
2018-09-15T17:39:01.227Z,2.27
2018-09-15T17:41:36.717Z,1.93
2018-09-15T17:44:06.471Z,2.47
2018-09-15T17:46:35.250Z,2.40
2018-09-15T17:49:04.163Z,2.67
2018-09-15T17:51:33.405Z,2.50
2018-09-15T17:54:03.418Z,2.57
2018-09-15T17:56:32.478Z,3.00
2018-09-15T17:59:01.567Z,2.70
2018-09-15T18:01:30.509Z,2.80
2018-09-15T18:03:59.265Z,3.13
2018-09-15T18:06:28.109Z,2.73
2018-09-15T18:08:57.875Z,2.53
2018-09-15T18:11:27.833Z,2.80
2018-09-15T18:13:56.853Z,3.07
2018-09-15T18:16:26.035Z,2.60
2018-09-15T18:18:55.164Z,3.10
2018-09-15T18:21:24.011Z,3.97
2018-09-15T18:23:53.252Z,3.83
2018-09-15T18:26:22.332Z,3.70
2018-09-15T18:28:51.126Z,3.40
2018-09-15T18:31:20.142Z,3.27
2018-09-15T18:33:49.372Z,3.57
2018-09-15T18:36:18.195Z,2.77
2018-09-15T18:38:47.505Z,2.90
2018-09-15T18:41:16.803Z,2.80
2018-09-15T18:43:46.902Z,4.00
2018-09-15T18:46:17.739Z,3.33
2018-09-15T18:48:47.398Z,3.40
2018-09-15T18:51:17.612Z,3.63
2018-09-15T18:53:46.768Z,3.47
2018-09-15T18:56:16.226Z,8.17
2018-09-15T18:58:45.640Z,7.07
2018-09-15T19:01:17.702Z,11.10
2018-09-15T19:03:49.966Z,8.40
2018-09-15T19:06:21.163Z,9.70
2018-09-15T19:08:50.866Z,7.23
2018-09-15T19:11:39.272Z,5.53
2018-09-15T19:14:18.213Z,4.70
2018-09-15T19:16:49.843Z,4.33
2018-09-15T19:19:24.260Z,3.67
2018-09-15T19:21:56.700Z,3.90
2018-09-15T19:24:28.476Z,3.93
2018-09-15T19:26:59.229Z,4.00
2018-09-15T19:29:29.006Z,4.53
2018-09-15T19:31:59.875Z,4.83
2018-09-15T19:34:29.957Z,4.90
2018-09-15T19:36:59.872Z,6.10
2018-09-15T19:39:29.922Z,6.50
2018-09-15T19:42:00.748Z,6.23
2018-09-15T19:44:30.100Z,5.50
2018-09-15T19:47:00.949Z,4.27
2018-09-15T19:49:32.719Z,4.70
2018-09-15T19:52:10.930Z,4.40
2018-09-15T19:54:40.967Z,4.73
2018-09-15T19:57:15.411Z,4.87
2018-09-15T19:59:48.062Z,4.70
2018-09-15T20:02:21.103Z,6.07
2018-09-15T20:04:52.213Z,6.00
2018-09-15T20:07:29.157Z,10.07
2018-09-15T20:09:59.301Z,8.80
2018-09-15T20:12:28.652Z,18.93
2018-09-15T20:15:00.859Z,8.37
2018-09-15T20:17:30.529Z,8.17
2018-09-15T20:19:58.772Z,5.53
2018-09-15T20:22:29.265Z,5.40
2018-09-15T20:25:06.012Z,5.90
2018-09-15T20:27:36.054Z,6.03
2018-09-15T20:30:06.309Z,6.13
2018-09-15T20:32:35.735Z,5.90
2018-09-15T20:35:06.322Z,6.30
2018-09-15T20:37:35.852Z,6.20
2018-09-15T20:40:10.962Z,6.07
2018-09-15T20:42:42.032Z,5.90
2018-09-15T20:45:11.863Z,6.33
2018-09-15T20:47:42.478Z,6.37
2018-09-15T20:50:13.293Z,5.70
2018-09-15T20:52:44.032Z,5.40
2018-09-15T20:55:13.385Z,5.80
2018-09-15T20:57:45.282Z,5.90
2018-09-15T21:00:15.569Z,4.87
2018-09-15T21:02:46.534Z,5.87
2018-09-15T21:05:18.448Z,5.57
2018-09-15T21:07:54.159Z,6.03
2018-09-15T21:10:24.935Z,5.83
2018-09-15T21:12:55.230Z,6.20
2018-09-15T21:15:26.889Z,8.77
2018-09-15T21:17:59.238Z,8.50
2018-09-15T21:20:28.359Z,13.50
2018-09-15T21:22:58.448Z,12.33
2018-09-15T21:25:27.931Z,38.30
2018-09-15T21:27:59.086Z,16.90
2018-09-15T21:30:28.289Z,27.30
2018-09-15T21:32:58.401Z,18.90
2018-09-15T21:35:27.687Z,49.37
2018-09-15T21:37:58.353Z,20.43
2018-09-15T21:40:27.530Z,16.20
2018-09-15T21:42:57.359Z,15.23
2018-09-15T21:45:29.481Z,37.77
2018-09-15T21:47:58.492Z,19.60
2018-09-15T21:50:29.576Z,20.07
2018-09-15T21:52:59.425Z,14.93
2018-09-15T21:55:28.971Z,37.97
2018-09-15T21:57:58.087Z,20.33
2018-09-15T22:00:28.769Z,12.20
2018-09-15T22:03:06.108Z,17.50
2018-09-15T22:05:35.300Z,25.23
2018-09-15T22:08:07.757Z,28.20
2018-09-15T22:10:36.674Z,17.70
2018-09-15T22:13:08.578Z,9.70
2018-09-15T22:15:37.720Z,8.70
2018-09-15T22:18:07.572Z,8.50
2018-09-15T22:20:37.994Z,8.00
2018-09-15T22:23:06.946Z,8.23
2018-09-15T22:25:36.829Z,8.20
2018-09-15T22:28:07.369Z,8.40
2018-09-15T22:30:36.906Z,9.97
2018-09-15T22:33:08.520Z,7.53
2018-09-15T22:35:40.218Z,7.07
2018-09-15T22:38:10.911Z,7.80
2018-09-15T22:40:40.562Z,7.70
2018-09-15T22:43:10.682Z,7.17
2018-09-15T22:45:39.652Z,7.53
2018-09-15T22:48:09.105Z,7.87
2018-09-15T22:50:40.926Z,8.10
2018-09-15T22:53:13.070Z,8.17
2018-09-15T22:55:42.891Z,8.70
2018-09-15T22:58:11.964Z,10.40
2018-09-15T23:01:12.085Z,8.67
2018-09-15T23:03:42.314Z,7.77
2018-09-15T23:06:43.559Z,8.30
2018-09-15T23:09:13.744Z,9.63
2018-09-15T23:11:45.124Z,8.53
2018-09-15T23:14:14.369Z,7.60
2018-09-15T23:16:43.571Z,9.10
2018-09-15T23:19:13.120Z,8.77
2018-09-15T23:21:43.735Z,7.97
2018-09-15T23:24:14.673Z,9.40
2018-09-15T23:26:47.397Z,9.07
2018-09-15T23:29:16.459Z,9.30
2018-09-15T23:31:46.210Z,10.93
2018-09-15T23:34:16.877Z,9.83
2018-09-15T23:36:46.876Z,13.27
2018-09-15T23:39:16.051Z,9.53
2018-09-15T23:41:47.808Z,9.97
2018-09-15T23:44:23.426Z,10.10
2018-09-15T23:46:52.814Z,10.30
2018-09-15T23:49:24.314Z,10.73
2018-09-15T23:51:54.660Z,9.77
2018-09-15T23:54:25.967Z,11.70
2018-09-15T23:56:55.853Z,11.13
2018-09-15T23:59:25.342Z,11.53
